sensor_id;sensor_type;location;lat;lon;timestamp;P1;durP1;ratioP1;P2;durP2;ratioP2
59846;SDS011;45728;48.788;2.302;2023-09-19T00:00:37;7.20;;;2.00;;
59846;SDS011;45728;48.788;2.302;2023-09-19T00:03:03;12.63;;;2.85;;
59846;SDS011;45728;48.788;2.302;2023-09-19T00:05:35;8.13;;;1.90;;
59846;SDS011;45728;48.788;2.302;2023-09-19T00:08:02;5.53;;;1.73;;
59846;SDS011;45728;48.788;2.302;2023-09-19T00:10:30;4.63;;;1.60;;
59846;SDS011;45728;48.788;2.302;2023-09-19T00:12:57;8.77;;;2.13;;
59846;SDS011;45728;48.788;2.302;2023-09-19T00:15:31;3.70;;;1.75;;
59846;SDS011;45728;48.788;2.302;2023-09-19T00:18:06;4.15;;;1.83;;
59846;SDS011;45728;48.788;2.302;2023-09-19T00:20:35;6.03;;;1.77;;
59846;SDS011;45728;48.788;2.302;2023-09-19T00:23:01;5.70;;;2.08;;
59846;SDS011;45728;48.788;2.302;2023-09-19T00:25:31;6.22;;;1.70;;
59846;SDS011;45728;48.788;2.302;2023-09-19T00:28:01;5.93;;;1.70;;
59846;SDS011;45728;48.788;2.302;2023-09-19T00:30:27;7.07;;;1.90;;
59846;SDS011;45728;48.788;2.302;2023-09-19T00:32:53;5.15;;;1.70;;
59846;SDS011;45728;48.788;2.302;2023-09-19T00:35:22;6.50;;;2.13;;
59846;SDS011;45728;48.788;2.302;2023-09-19T00:37:49;6.25;;;1.70;;
59846;SDS011;45728;48.788;2.302;2023-09-19T00:40:16;6.95;;;2.05;;
59846;SDS011;45728;48.788;2.302;2023-09-19T00:42:43;6.07;;;1.58;;
59846;SDS011;45728;48.788;2.302;2023-09-19T00:45:10;4.70;;;1.35;;
59846;SDS011;45728;48.788;2.302;2023-09-19T00:47:38;5.00;;;2.20;;
59846;SDS011;45728;48.788;2.302;2023-09-19T00:50:16;5.90;;;1.80;;
59846;SDS011;45728;48.788;2.302;2023-09-19T00:55:15;5.13;;;1.70;;
59846;SDS011;45728;48.788;2.302;2023-09-19T00:57:42;7.18;;;2.05;;
59846;SDS011;45728;48.788;2.302;2023-09-19T01:00:09;7.80;;;1.80;;
59846;SDS011;45728;48.788;2.302;2023-09-19T01:02:41;6.88;;;2.05;;
59846;SDS011;45728;48.788;2.302;2023-09-19T01:05:09;7.68;;;2.53;;
59846;SDS011;45728;48.788;2.302;2023-09-19T01:07:35;5.07;;;1.70;;
59846;SDS011;45728;48.788;2.302;2023-09-19T01:10:02;5.70;;;1.92;;
59846;SDS011;45728;48.788;2.302;2023-09-19T01:12:55;6.00;;;1.88;;
59846;SDS011;45728;48.788;2.302;2023-09-19T01:15:28;7.30;;;2.20;;
59846;SDS011;45728;48.788;2.302;2023-09-19T01:26:36;5.25;;;1.92;;
59846;SDS011;45728;48.788;2.302;2023-09-19T01:32:08;5.22;;;1.88;;
59846;SDS011;45728;48.788;2.302;2023-09-19T01:34:44;7.28;;;2.50;;
59846;SDS011;45728;48.788;2.302;2023-09-19T01:37:13;9.25;;;2.25;;
59846;SDS011;45728;48.788;2.302;2023-09-19T01:39:48;8.15;;;2.20;;
59846;SDS011;45728;48.788;2.302;2023-09-19T01:47:52;5.47;;;2.17;;
59846;SDS011;45728;48.788;2.302;2023-09-19T01:50:29;9.80;;;2.03;;
59846;SDS011;45728;48.788;2.302;2023-09-19T01:53:06;6.68;;;1.98;;
59846;SDS011;45728;48.788;2.302;2023-09-19T01:55:41;10.48;;;2.58;;
59846;SDS011;45728;48.788;2.302;2023-09-19T01:58:17;5.20;;;2.08;;
59846;SDS011;45728;48.788;2.302;2023-09-19T02:01:08;5.97;;;2.03;;
59846;SDS011;45728;48.788;2.302;2023-09-19T02:03:38;6.65;;;2.38;;
59846;SDS011;45728;48.788;2.302;2023-09-19T02:06:06;5.97;;;1.75;;
59846;SDS011;45728;48.788;2.302;2023-09-19T02:08:36;7.13;;;2.15;;
59846;SDS011;45728;48.788;2.302;2023-09-19T02:11:03;8.77;;;2.25;;
59846;SDS011;45728;48.788;2.302;2023-09-19T02:13:29;8.18;;;2.60;;
59846;SDS011;45728;48.788;2.302;2023-09-19T02:15:56;6.00;;;2.10;;
59846;SDS011;45728;48.788;2.302;2023-09-19T02:18:22;5.70;;;2.40;;
59846;SDS011;45728;48.788;2.302;2023-09-19T02:20:48;7.97;;;2.40;;
59846;SDS011;45728;48.788;2.302;2023-09-19T02:23:16;9.15;;;2.22;;
59846;SDS011;45728;48.788;2.302;2023-09-19T02:25:43;8.95;;;2.20;;
59846;SDS011;45728;48.788;2.302;2023-09-19T02:28:17;6.80;;;2.20;;
59846;SDS011;45728;48.788;2.302;2023-09-19T02:30:43;7.70;;;2.30;;
59846;SDS011;45728;48.788;2.302;2023-09-19T02:33:14;6.95;;;1.98;;
59846;SDS011;45728;48.788;2.302;2023-09-19T02:35:40;5.40;;;1.80;;
59846;SDS011;45728;48.788;2.302;2023-09-19T02:38:06;6.47;;;1.85;;
59846;SDS011;45728;48.788;2.302;2023-09-19T02:40:37;9.27;;;2.63;;
59846;SDS011;45728;48.788;2.302;2023-09-19T02:43:03;6.88;;;2.10;;
59846;SDS011;45728;48.788;2.302;2023-09-19T02:45:30;9.32;;;2.70;;
59846;SDS011;45728;48.788;2.302;2023-09-19T02:47:57;7.97;;;2.40;;
59846;SDS011;45728;48.788;2.302;2023-09-19T02:50:23;8.38;;;2.33;;
59846;SDS011;45728;48.788;2.302;2023-09-19T02:52:49;9.60;;;2.20;;
59846;SDS011;45728;48.788;2.302;2023-09-19T02:55:16;7.72;;;2.10;;
59846;SDS011;45728;48.788;2.302;2023-09-19T02:57:46;7.63;;;2.35;;
59846;SDS011;45728;48.788;2.302;2023-09-19T03:00:17;14.75;;;2.97;;
59846;SDS011;45728;48.788;2.302;2023-09-19T03:02:50;10.98;;;2.90;;
59846;SDS011;45728;48.788;2.302;2023-09-19T03:05:19;9.13;;;2.70;;
59846;SDS011;45728;48.788;2.302;2023-09-19T03:07:46;8.13;;;2.75;;
59846;SDS011;45728;48.788;2.302;2023-09-19T03:10:19;10.07;;;2.47;;
59846;SDS011;45728;48.788;2.302;2023-09-19T03:12:46;13.15;;;2.67;;
59846;SDS011;45728;48.788;2.302;2023-09-19T03:15:13;9.52;;;2.60;;
59846;SDS011;45728;48.788;2.302;2023-09-19T03:17:44;10.27;;;3.03;;
59846;SDS011;45728;48.788;2.302;2023-09-19T03:20:11;7.15;;;2.40;;
59846;SDS011;45728;48.788;2.302;2023-09-19T03:22:43;7.47;;;2.10;;
59846;SDS011;45728;48.788;2.302;2023-09-19T03:25:09;18.17;;;2.90;;
59846;SDS011;45728;48.788;2.302;2023-09-19T03:27:37;7.97;;;2.42;;
59846;SDS011;45728;48.788;2.302;2023-09-19T03:30:04;7.15;;;2.50;;
59846;SDS011;45728;48.788;2.302;2023-09-19T03:35:00;8.27;;;2.70;;
59846;SDS011;45728;48.788;2.302;2023-09-19T03:37:27;10.13;;;2.58;;
59846;SDS011;45728;48.788;2.302;2023-09-19T03:39:53;8.90;;;2.72;;
59846;SDS011;45728;48.788;2.302;2023-09-19T03:42:19;10.38;;;2.72;;
59846;SDS011;45728;48.788;2.302;2023-09-19T03:44:51;11.10;;;2.83;;
59846;SDS011;45728;48.788;2.302;2023-09-19T03:47:18;9.10;;;2.85;;
59846;SDS011;45728;48.788;2.302;2023-09-19T03:49:44;9.55;;;2.65;;
59846;SDS011;45728;48.788;2.302;2023-09-19T03:52:10;9.55;;;2.88;;
59846;SDS011;45728;48.788;2.302;2023-09-19T03:54:36;7.68;;;2.53;;
59846;SDS011;45728;48.788;2.302;2023-09-19T03:57:03;17.70;;;3.30;;
59846;SDS011;45728;48.788;2.302;2023-09-19T03:59:29;9.10;;;3.15;;
59846;SDS011;45728;48.788;2.302;2023-09-19T04:01:56;10.57;;;3.00;;
59846;SDS011;45728;48.788;2.302;2023-09-19T04:04:23;11.05;;;3.08;;
59846;SDS011;45728;48.788;2.302;2023-09-19T04:06:53;8.73;;;2.80;;
59846;SDS011;45728;48.788;2.302;2023-09-19T04:09:19;6.15;;;2.53;;
59846;SDS011;45728;48.788;2.302;2023-09-19T04:11:45;9.88;;;2.80;;
59846;SDS011;45728;48.788;2.302;2023-09-19T04:14:11;10.18;;;2.75;;
59846;SDS011;45728;48.788;2.302;2023-09-19T04:16:37;10.10;;;2.55;;
59846;SDS011;45728;48.788;2.302;2023-09-19T04:19:04;11.55;;;2.55;;
59846;SDS011;45728;48.788;2.302;2023-09-19T04:21:31;11.23;;;2.53;;
59846;SDS011;45728;48.788;2.302;2023-09-19T04:23:57;7.60;;;2.42;;
59846;SDS011;45728;48.788;2.302;2023-09-19T04:26:23;7.85;;;2.50;;
59846;SDS011;45728;48.788;2.302;2023-09-19T04:28:51;11.38;;;3.20;;
59846;SDS011;45728;48.788;2.302;2023-09-19T04:31:17;7.72;;;2.50;;
59846;SDS011;45728;48.788;2.302;2023-09-19T04:33:45;10.20;;;3.20;;
59846;SDS011;45728;48.788;2.302;2023-09-19T04:36:11;10.32;;;3.03;;
59846;SDS011;45728;48.788;2.302;2023-09-19T04:38:38;11.60;;;2.95;;
59846;SDS011;45728;48.788;2.302;2023-09-19T04:41:05;13.57;;;2.85;;
59846;SDS011;45728;48.788;2.302;2023-09-19T04:43:31;13.05;;;3.22;;
59846;SDS011;45728;48.788;2.302;2023-09-19T04:45:57;11.80;;;3.13;;
59846;SDS011;45728;48.788;2.302;2023-09-19T04:48:26;10.52;;;3.15;;
59846;SDS011;45728;48.788;2.302;2023-09-19T04:50:52;10.63;;;3.08;;
59846;SDS011;45728;48.788;2.302;2023-09-19T04:53:18;10.30;;;2.92;;
59846;SDS011;45728;48.788;2.302;2023-09-19T04:55:52;15.00;;;3.00;;
59846;SDS011;45728;48.788;2.302;2023-09-19T04:58:18;10.60;;;2.83;;
59846;SDS011;45728;48.788;2.302;2023-09-19T05:00:45;9.30;;;3.30;;
59846;SDS011;45728;48.788;2.302;2023-09-19T05:03:11;8.90;;;2.53;;
59846;SDS011;45728;48.788;2.302;2023-09-19T05:05:37;9.90;;;2.70;;
59846;SDS011;45728;48.788;2.302;2023-09-19T05:08:04;11.20;;;2.80;;
59846;SDS011;45728;48.788;2.302;2023-09-19T05:10:31;12.85;;;2.65;;
59846;SDS011;45728;48.788;2.302;2023-09-19T05:12:58;10.77;;;2.92;;
59846;SDS011;45728;48.788;2.302;2023-09-19T05:15:24;8.77;;;3.00;;
59846;SDS011;45728;48.788;2.302;2023-09-19T05:17:50;11.68;;;3.35;;
59846;SDS011;45728;48.788;2.302;2023-09-19T05:20:17;13.20;;;3.28;;
59846;SDS011;45728;48.788;2.302;2023-09-19T05:23:04;9.32;;;2.53;;
59846;SDS011;45728;48.788;2.302;2023-09-19T05:25:35;12.02;;;3.95;;
59846;SDS011;45728;48.788;2.302;2023-09-19T05:28:07;12.52;;;3.08;;
59846;SDS011;45728;48.788;2.302;2023-09-19T05:30:35;12.70;;;2.67;;
59846;SDS011;45728;48.788;2.302;2023-09-19T05:33:02;11.43;;;3.17;;
59846;SDS011;45728;48.788;2.302;2023-09-19T05:35:29;11.80;;;2.65;;
59846;SDS011;45728;48.788;2.302;2023-09-19T05:37:57;10.73;;;2.90;;
59846;SDS011;45728;48.788;2.302;2023-09-19T05:40:24;10.25;;;2.90;;
59846;SDS011;45728;48.788;2.302;2023-09-19T05:42:50;8.57;;;2.58;;
59846;SDS011;45728;48.788;2.302;2023-09-19T05:45:17;11.65;;;3.03;;
59846;SDS011;45728;48.788;2.302;2023-09-19T05:47:53;11.60;;;3.10;;
59846;SDS011;45728;48.788;2.302;2023-09-19T05:50:29;9.68;;;2.90;;
59846;SDS011;45728;48.788;2.302;2023-09-19T05:52:57;13.02;;;3.50;;
59846;SDS011;45728;48.788;2.302;2023-09-19T05:55:23;10.73;;;3.20;;
59846;SDS011;45728;48.788;2.302;2023-09-19T05:57:50;12.38;;;3.30;;
59846;SDS011;45728;48.788;2.302;2023-09-19T06:00:20;13.63;;;3.20;;
59846;SDS011;45728;48.788;2.302;2023-09-19T06:02:50;15.90;;;3.38;;
59846;SDS011;45728;48.788;2.302;2023-09-19T06:05:18;10.68;;;2.90;;
59846;SDS011;45728;48.788;2.302;2023-09-19T06:07:44;15.88;;;3.22;;
59846;SDS011;45728;48.788;2.302;2023-09-19T06:10:10;9.65;;;2.50;;
59846;SDS011;45728;48.788;2.302;2023-09-19T06:12:39;9.10;;;2.58;;
59846;SDS011;45728;48.788;2.302;2023-09-19T06:15:06;9.82;;;2.92;;
59846;SDS011;45728;48.788;2.302;2023-09-19T06:17:38;12.07;;;3.22;;
59846;SDS011;45728;48.788;2.302;2023-09-19T06:20:07;12.82;;;2.70;;
59846;SDS011;45728;48.788;2.302;2023-09-19T06:22:42;12.38;;;3.25;;
59846;SDS011;45728;48.788;2.302;2023-09-19T06:25:10;11.63;;;3.05;;
59846;SDS011;45728;48.788;2.302;2023-09-19T06:27:39;9.20;;;2.88;;
59846;SDS011;45728;48.788;2.302;2023-09-19T06:30:10;11.63;;;3.10;;
59846;SDS011;45728;48.788;2.302;2023-09-19T06:32:43;7.68;;;2.40;;
59846;SDS011;45728;48.788;2.302;2023-09-19T06:35:12;15.80;;;3.00;;
59846;SDS011;45728;48.788;2.302;2023-09-19T06:37:39;12.57;;;2.83;;
59846;SDS011;45728;48.788;2.302;2023-09-19T06:40:13;11.60;;;2.80;;
59846;SDS011;45728;48.788;2.302;2023-09-19T06:42:40;11.80;;;2.75;;
59846;SDS011;45728;48.788;2.302;2023-09-19T06:45:07;11.63;;;3.20;;
59846;SDS011;45728;48.788;2.302;2023-09-19T06:47:37;6.95;;;2.42;;
59846;SDS011;45728;48.788;2.302;2023-09-19T06:50:03;10.23;;;2.60;;
59846;SDS011;45728;48.788;2.302;2023-09-19T06:52:31;9.73;;;2.58;;
59846;SDS011;45728;48.788;2.302;2023-09-19T06:54:58;10.35;;;3.00;;
59846;SDS011;45728;48.788;2.302;2023-09-19T06:57:24;9.70;;;2.70;;
59846;SDS011;45728;48.788;2.302;2023-09-19T06:59:50;10.88;;;3.17;;
59846;SDS011;45728;48.788;2.302;2023-09-19T07:02:16;12.68;;;3.15;;
59846;SDS011;45728;48.788;2.302;2023-09-19T07:04:42;12.38;;;3.25;;
59846;SDS011;45728;48.788;2.302;2023-09-19T07:07:09;11.77;;;3.13;;
59846;SDS011;45728;48.788;2.302;2023-09-19T07:09:35;12.60;;;3.03;;
59846;SDS011;45728;48.788;2.302;2023-09-19T07:12:02;16.08;;;3.10;;
59846;SDS011;45728;48.788;2.302;2023-09-19T07:14:28;10.07;;;3.47;;
59846;SDS011;45728;48.788;2.302;2023-09-19T07:16:55;12.43;;;2.92;;
59846;SDS011;45728;48.788;2.302;2023-09-19T07:19:21;8.63;;;2.80;;
59846;SDS011;45728;48.788;2.302;2023-09-19T07:21:47;13.32;;;2.97;;
59846;SDS011;45728;48.788;2.302;2023-09-19T07:24:15;9.07;;;2.55;;
59846;SDS011;45728;48.788;2.302;2023-09-19T07:26:41;11.93;;;2.95;;
59846;SDS011;45728;48.788;2.302;2023-09-19T07:29:07;15.00;;;3.33;;
59846;SDS011;45728;48.788;2.302;2023-09-19T07:31:34;12.43;;;2.90;;
59846;SDS011;45728;48.788;2.302;2023-09-19T07:34:00;11.15;;;3.22;;
59846;SDS011;45728;48.788;2.302;2023-09-19T07:36:26;10.82;;;2.22;;
59846;SDS011;45728;48.788;2.302;2023-09-19T07:38:55;13.47;;;2.73;;
59846;SDS011;45728;48.788;2.302;2023-09-19T07:41:23;12.52;;;2.92;;
59846;SDS011;45728;48.788;2.302;2023-09-19T07:43:49;8.95;;;2.38;;
59846;SDS011;45728;48.788;2.302;2023-09-19T07:46:15;13.52;;;2.53;;
59846;SDS011;45728;48.788;2.302;2023-09-19T07:48:41;8.32;;;2.42;;
59846;SDS011;45728;48.788;2.302;2023-09-19T07:51:13;11.88;;;2.80;;
59846;SDS011;45728;48.788;2.302;2023-09-19T07:53:41;10.30;;;2.97;;
59846;SDS011;45728;48.788;2.302;2023-09-19T07:56:08;11.02;;;2.70;;
59846;SDS011;45728;48.788;2.302;2023-09-19T07:58:35;11.35;;;2.63;;
59846;SDS011;45728;48.788;2.302;2023-09-19T08:01:07;8.02;;;2.85;;
59846;SDS011;45728;48.788;2.302;2023-09-19T08:03:35;11.02;;;2.63;;
59846;SDS011;45728;48.788;2.302;2023-09-19T08:06:06;8.77;;;2.70;;
59846;SDS011;45728;48.788;2.302;2023-09-19T08:08:33;11.43;;;2.80;;
59846;SDS011;45728;48.788;2.302;2023-09-19T08:11:03;9.73;;;2.88;;
59846;SDS011;45728;48.788;2.302;2023-09-19T08:13:41;9.40;;;2.83;;
59846;SDS011;45728;48.788;2.302;2023-09-19T08:16:10;8.43;;;2.95;;
59846;SDS011;45728;48.788;2.302;2023-09-19T08:18:36;9.05;;;2.60;;
59846;SDS011;45728;48.788;2.302;2023-09-19T08:21:05;11.00;;;2.85;;
59846;SDS011;45728;48.788;2.302;2023-09-19T08:23:37;11.82;;;2.75;;
59846;SDS011;45728;48.788;2.302;2023-09-19T08:26:04;9.50;;;2.50;;
59846;SDS011;45728;48.788;2.302;2023-09-19T08:28:34;11.35;;;2.35;;
59846;SDS011;45728;48.788;2.302;2023-09-19T08:31:01;10.13;;;2.88;;
59846;SDS011;45728;48.788;2.302;2023-09-19T08:33:31;7.22;;;2.35;;
59846;SDS011;45728;48.788;2.302;2023-09-19T08:35:59;11.10;;;2.80;;
59846;SDS011;45728;48.788;2.302;2023-09-19T08:38:25;11.27;;;2.40;;
59846;SDS011;45728;48.788;2.302;2023-09-19T08:40:58;7.28;;;2.17;;
59846;SDS011;45728;48.788;2.302;2023-09-19T08:43:25;8.80;;;2.40;;
59846;SDS011;45728;48.788;2.302;2023-09-19T08:48:45;9.15;;;2.67;;
59846;SDS011;45728;48.788;2.302;2023-09-19T08:51:18;9.63;;;2.70;;
59846;SDS011;45728;48.788;2.302;2023-09-19T08:53:52;7.88;;;2.42;;
59846;SDS011;45728;48.788;2.302;2023-09-19T08:56:25;10.65;;;2.58;;
59846;SDS011;45728;48.788;2.302;2023-09-19T08:59:00;7.90;;;1.90;;
59846;SDS011;45728;48.788;2.302;2023-09-19T09:01:29;9.82;;;3.03;;
59846;SDS011;45728;48.788;2.302;2023-09-19T09:03:57;11.15;;;2.75;;
59846;SDS011;45728;48.788;2.302;2023-09-19T09:06:25;6.90;;;2.33;;
59846;SDS011;45728;48.788;2.302;2023-09-19T09:08:53;12.18;;;3.13;;
59846;SDS011;45728;48.788;2.302;2023-09-19T09:11:20;8.95;;;2.25;;
59846;SDS011;45728;48.788;2.302;2023-09-19T09:13:47;9.70;;;2.67;;
59846;SDS011;45728;48.788;2.302;2023-09-19T09:16:14;10.55;;;2.88;;
59846;SDS011;45728;48.788;2.302;2023-09-19T09:18:47;7.97;;;1.90;;
59846;SDS011;45728;48.788;2.302;2023-09-19T09:21:18;10.15;;;2.35;;
59846;SDS011;45728;48.788;2.302;2023-09-19T09:23:47;8.45;;;2.20;;
59846;SDS011;45728;48.788;2.302;2023-09-19T09:26:15;7.88;;;2.75;;
59846;SDS011;45728;48.788;2.302;2023-09-19T09:28:45;8.82;;;2.33;;
59846;SDS011;45728;48.788;2.302;2023-09-19T09:31:25;7.97;;;2.80;;
59846;SDS011;45728;48.788;2.302;2023-09-19T09:33:54;7.07;;;2.30;;
59846;SDS011;45728;48.788;2.302;2023-09-19T09:36:37;7.88;;;2.25;;
59846;SDS011;45728;48.788;2.302;2023-09-19T09:39:06;6.05;;;1.60;;
59846;SDS011;45728;48.788;2.302;2023-09-19T09:41:44;7.18;;;1.75;;
59846;SDS011;45728;48.788;2.302;2023-09-19T09:44:14;6.22;;;1.88;;
59846;SDS011;45728;48.788;2.302;2023-09-19T09:46:43;10.13;;;2.13;;
59846;SDS011;45728;48.788;2.302;2023-09-19T09:49:22;7.10;;;1.80;;
59846;SDS011;45728;48.788;2.302;2023-09-19T09:52:00;5.72;;;1.65;;
59846;SDS011;45728;48.788;2.302;2023-09-19T09:54:31;7.47;;;2.15;;
59846;SDS011;45728;48.788;2.302;2023-09-19T09:57:04;6.80;;;1.70;;
59846;SDS011;45728;48.788;2.302;2023-09-19T10:02:27;5.70;;;1.75;;
59846;SDS011;45728;48.788;2.302;2023-09-19T10:05:11;3.70;;;1.52;;
59846;SDS011;45728;48.788;2.302;2023-09-19T10:07:45;5.35;;;1.75;;
59846;SDS011;45728;48.788;2.302;2023-09-19T10:13:17;6.38;;;1.58;;
59846;SDS011;45728;48.788;2.302;2023-09-19T10:15:47;6.43;;;1.60;;
59846;SDS011;45728;48.788;2.302;2023-09-19T10:20:46;6.18;;;1.85;;
59846;SDS011;45728;48.788;2.302;2023-09-19T10:23:14;4.95;;;1.52;;
59846;SDS011;45728;48.788;2.302;2023-09-19T10:25:48;4.68;;;1.58;;
59846;SDS011;45728;48.788;2.302;2023-09-19T10:28:16;5.15;;;1.60;;
59846;SDS011;45728;48.788;2.302;2023-09-19T10:30:47;4.13;;;1.58;;
59846;SDS011;45728;48.788;2.302;2023-09-19T10:33:16;4.90;;;1.37;;
59846;SDS011;45728;48.788;2.302;2023-09-19T10:35:45;7.65;;;2.00;;
59846;SDS011;45728;48.788;2.302;2023-09-19T10:38:19;5.88;;;2.00;;
59846;SDS011;45728;48.788;2.302;2023-09-19T10:40:52;5.15;;;1.70;;
59846;SDS011;45728;48.788;2.302;2023-09-19T10:43:19;7.82;;;2.05;;
59846;SDS011;45728;48.788;2.302;2023-09-19T10:45:47;3.13;;;1.40;;
59846;SDS011;45728;48.788;2.302;2023-09-19T10:48:15;4.03;;;1.50;;
59846;SDS011;45728;48.788;2.302;2023-09-19T10:53:16;4.97;;;2.03;;
59846;SDS011;45728;48.788;2.302;2023-09-19T10:55:50;4.38;;;1.50;;
59846;SDS011;45728;48.788;2.302;2023-09-19T11:00:58;4.63;;;1.60;;
59846;SDS011;45728;48.788;2.302;2023-09-19T11:03:35;4.55;;;1.60;;
59846;SDS011;45728;48.788;2.302;2023-09-19T11:06:12;6.53;;;1.50;;
59846;SDS011;45728;48.788;2.302;2023-09-19T11:08:54;3.53;;;1.17;;
59846;SDS011;45728;48.788;2.302;2023-09-19T11:11:45;5.53;;;1.70;;
59846;SDS011;45728;48.788;2.302;2023-09-19T11:30:33;4.68;;;1.48;;
59846;SDS011;45728;48.788;2.302;2023-09-19T11:36:06;5.47;;;1.52;;
59846;SDS011;45728;48.788;2.302;2023-09-19T11:49:26;3.92;;;1.58;;
59846;SDS011;45728;48.788;2.302;2023-09-19T11:52:02;3.60;;;1.50;;
59846;SDS011;45728;48.788;2.302;2023-09-19T11:54:34;5.18;;;1.50;;
59846;SDS011;45728;48.788;2.302;2023-09-19T11:57:05;5.00;;;1.65;;
59846;SDS011;45728;48.788;2.302;2023-09-19T11:59:33;5.72;;;1.77;;
59846;SDS011;45728;48.788;2.302;2023-09-19T12:04:37;3.55;;;1.58;;
59846;SDS011;45728;48.788;2.302;2023-09-19T12:07:06;5.00;;;1.92;;
59846;SDS011;45728;48.788;2.302;2023-09-19T12:09:39;6.80;;;2.10;;
59846;SDS011;45728;48.788;2.302;2023-09-19T12:12:24;4.07;;;1.85;;
59846;SDS011;45728;48.788;2.302;2023-09-19T12:14:52;6.68;;;1.70;;
59846;SDS011;45728;48.788;2.302;2023-09-19T12:17:20;3.63;;;1.40;;
59846;SDS011;45728;48.788;2.302;2023-09-19T12:19:51;3.97;;;1.60;;
59846;SDS011;45728;48.788;2.302;2023-09-19T12:22:17;3.95;;;2.03;;
59846;SDS011;45728;48.788;2.302;2023-09-19T12:24:46;3.50;;;1.52;;
59846;SDS011;45728;48.788;2.302;2023-09-19T12:27:12;6.05;;;1.73;;
59846;SDS011;45728;48.788;2.302;2023-09-19T12:29:48;6.30;;;2.03;;
59846;SDS011;45728;48.788;2.302;2023-09-19T12:32:15;5.13;;;2.10;;
59846;SDS011;45728;48.788;2.302;2023-09-19T12:34:51;2.92;;;1.88;;
59846;SDS011;45728;48.788;2.302;2023-09-19T12:37:18;6.25;;;1.98;;
59846;SDS011;45728;48.788;2.302;2023-09-19T12:39:50;5.28;;;2.03;;
59846;SDS011;45728;48.788;2.302;2023-09-19T12:42:24;3.85;;;1.83;;
59846;SDS011;45728;48.788;2.302;2023-09-19T12:44:57;3.63;;;1.42;;
59846;SDS011;45728;48.788;2.302;2023-09-19T12:47:27;5.43;;;1.88;;
59846;SDS011;45728;48.788;2.302;2023-09-19T12:50:14;3.38;;;1.63;;
59846;SDS011;45728;48.788;2.302;2023-09-19T12:52:41;6.07;;;1.90;;
59846;SDS011;45728;48.788;2.302;2023-09-19T12:55:24;7.13;;;2.00;;
59846;SDS011;45728;48.788;2.302;2023-09-19T13:00:41;6.32;;;1.95;;
59846;SDS011;45728;48.788;2.302;2023-09-19T13:03:13;5.53;;;1.63;;
59846;SDS011;45728;48.788;2.302;2023-09-19T13:08:24;3.72;;;1.42;;
59846;SDS011;45728;48.788;2.302;2023-09-19T13:11:06;4.72;;;1.80;;
59846;SDS011;45728;48.788;2.302;2023-09-19T13:13:35;5.85;;;1.85;;
59846;SDS011;45728;48.788;2.302;2023-09-19T13:16:03;5.53;;;1.98;;
59846;SDS011;45728;48.788;2.302;2023-09-19T13:18:51;5.50;;;1.60;;
59846;SDS011;45728;48.788;2.302;2023-09-19T13:21:28;6.25;;;2.00;;
59846;SDS011;45728;48.788;2.302;2023-09-19T13:24:21;5.78;;;2.30;;
59846;SDS011;45728;48.788;2.302;2023-09-19T13:26:48;4.22;;;2.10;;
59846;SDS011;45728;48.788;2.302;2023-09-19T13:29:15;4.65;;;1.65;;
59846;SDS011;45728;48.788;2.302;2023-09-19T13:31:47;6.60;;;1.73;;
59846;SDS011;45728;48.788;2.302;2023-09-19T13:34:18;6.20;;;2.42;;
59846;SDS011;45728;48.788;2.302;2023-09-19T13:36:45;6.72;;;2.28;;
59846;SDS011;45728;48.788;2.302;2023-09-19T13:39:15;4.88;;;1.80;;
59846;SDS011;45728;48.788;2.302;2023-09-19T13:41:43;5.65;;;1.80;;
59846;SDS011;45728;48.788;2.302;2023-09-19T13:44:12;3.42;;;1.52;;
59846;SDS011;45728;48.788;2.302;2023-09-19T13:46:38;4.82;;;1.60;;
59846;SDS011;45728;48.788;2.302;2023-09-19T13:49:04;5.32;;;1.60;;
59846;SDS011;45728;48.788;2.302;2023-09-19T13:51:30;3.40;;;1.77;;
59846;SDS011;45728;48.788;2.302;2023-09-19T13:53:57;6.53;;;2.35;;
59846;SDS011;45728;48.788;2.302;2023-09-19T13:56:25;6.30;;;1.90;;
59846;SDS011;45728;48.788;2.302;2023-09-19T13:58:55;5.45;;;1.90;;
59846;SDS011;45728;48.788;2.302;2023-09-19T14:01:21;7.38;;;1.60;;
59846;SDS011;45728;48.788;2.302;2023-09-19T14:03:47;4.75;;;1.77;;
59846;SDS011;45728;48.788;2.302;2023-09-19T14:06:15;5.20;;;1.90;;
59846;SDS011;45728;48.788;2.302;2023-09-19T14:08:42;4.50;;;1.85;;
59846;SDS011;45728;48.788;2.302;2023-09-19T14:11:12;5.00;;;2.03;;
59846;SDS011;45728;48.788;2.302;2023-09-19T14:13:39;6.82;;;2.03;;
59846;SDS011;45728;48.788;2.302;2023-09-19T14:16:06;7.32;;;2.22;;
59846;SDS011;45728;48.788;2.302;2023-09-19T14:18:34;3.55;;;1.67;;
59846;SDS011;45728;48.788;2.302;2023-09-19T14:21:04;4.47;;;1.63;;
59846;SDS011;45728;48.788;2.302;2023-09-19T14:23:39;4.63;;;1.73;;
59846;SDS011;45728;48.788;2.302;2023-09-19T14:26:08;4.22;;;1.92;;
59846;SDS011;45728;48.788;2.302;2023-09-19T14:28:34;5.30;;;1.67;;
59846;SDS011;45728;48.788;2.302;2023-09-19T14:31:07;4.78;;;1.65;;
59846;SDS011;45728;48.788;2.302;2023-09-19T14:33:34;6.25;;;1.65;;
59846;SDS011;45728;48.788;2.302;2023-09-19T14:36:04;8.10;;;2.03;;
59846;SDS011;45728;48.788;2.302;2023-09-19T14:38:35;6.22;;;1.90;;
59846;SDS011;45728;48.788;2.302;2023-09-19T14:41:21;3.92;;;1.60;;
59846;SDS011;45728;48.788;2.302;2023-09-19T14:43:48;5.20;;;1.77;;
59846;SDS011;45728;48.788;2.302;2023-09-19T14:46:15;5.88;;;2.28;;
59846;SDS011;45728;48.788;2.302;2023-09-19T14:48:41;6.18;;;2.03;;
59846;SDS011;45728;48.788;2.302;2023-09-19T14:51:08;6.10;;;1.80;;
59846;SDS011;45728;48.788;2.302;2023-09-19T14:53:37;5.97;;;2.00;;
59846;SDS011;45728;48.788;2.302;2023-09-19T14:56:04;7.47;;;1.90;;
59846;SDS011;45728;48.788;2.302;2023-09-19T14:58:31;9.52;;;2.33;;
59846;SDS011;45728;48.788;2.302;2023-09-19T15:01:08;7.95;;;2.13;;
59846;SDS011;45728;48.788;2.302;2023-09-19T15:03:38;4.60;;;1.80;;
59846;SDS011;45728;48.788;2.302;2023-09-19T15:06:06;5.97;;;1.80;;
59846;SDS011;45728;48.788;2.302;2023-09-19T15:08:40;8.18;;;1.92;;
59846;SDS011;45728;48.788;2.302;2023-09-19T15:11:11;3.65;;;1.95;;
59846;SDS011;45728;48.788;2.302;2023-09-19T15:13:37;6.68;;;1.90;;
59846;SDS011;45728;48.788;2.302;2023-09-19T15:16:05;5.13;;;2.17;;
59846;SDS011;45728;48.788;2.302;2023-09-19T15:18:39;8.20;;;2.30;;
59846;SDS011;45728;48.788;2.302;2023-09-19T15:21:07;3.25;;;1.60;;
59846;SDS011;45728;48.788;2.302;2023-09-19T15:23:36;5.93;;;1.98;;
59846;SDS011;45728;48.788;2.302;2023-09-19T15:26:03;4.18;;;1.83;;
59846;SDS011;45728;48.788;2.302;2023-09-19T15:28:30;3.97;;;1.70;;
59846;SDS011;45728;48.788;2.302;2023-09-19T15:30:59;9.27;;;2.25;;
59846;SDS011;45728;48.788;2.302;2023-09-19T15:33:27;5.72;;;2.00;;
59846;SDS011;45728;48.788;2.302;2023-09-19T15:38:30;4.55;;;2.05;;
59846;SDS011;45728;48.788;2.302;2023-09-19T15:41:00;6.38;;;2.00;;
59846;SDS011;45728;48.788;2.302;2023-09-19T15:43:26;7.40;;;2.20;;
59846;SDS011;45728;48.788;2.302;2023-09-19T15:45:52;4.60;;;1.92;;
59846;SDS011;45728;48.788;2.302;2023-09-19T15:48:18;4.32;;;1.75;;
59846;SDS011;45728;48.788;2.302;2023-09-19T15:50:47;6.10;;;2.00;;
59846;SDS011;45728;48.788;2.302;2023-09-19T15:53:13;8.18;;;2.25;;
59846;SDS011;45728;48.788;2.302;2023-09-19T15:55:39;2.67;;;1.30;;
59846;SDS011;45728;48.788;2.302;2023-09-19T15:58:06;5.85;;;1.95;;
59846;SDS011;45728;48.788;2.302;2023-09-19T16:00:33;4.32;;;1.67;;
59846;SDS011;45728;48.788;2.302;2023-09-19T16:03:02;7.57;;;1.95;;
59846;SDS011;45728;48.788;2.302;2023-09-19T16:05:34;4.78;;;1.80;;
59846;SDS011;45728;48.788;2.302;2023-09-19T16:08:03;5.47;;;1.90;;
59846;SDS011;45728;48.788;2.302;2023-09-19T16:10:33;12.93;;;1.92;;
59846;SDS011;45728;48.788;2.302;2023-09-19T16:13:00;6.60;;;2.00;;
59846;SDS011;45728;48.788;2.302;2023-09-19T16:15:26;7.75;;;2.10;;